FYWE

Eros Airport

Windhoek, Namibia
TAF FYWE 251400Z 2515/2600 27010KT CAVOK
Issued Valid From Valid To
Sep-25 @ 14:00 UTC
(an hour ago)
Sep-25 @ 15:00 UTC
(5 minutes ago)
Sep-26 @ 00:00 UTC
(in 9 hours)
Sep-25 @ 15:00 to Sep-26 @ 00:00
TAF FYWE 251400Z 2515/2600 27010KT CAVOK
Wind Visibility Clouds Conditions
270° at 10 knots 10,000+ meters
  • No significant clouds
TAF FYWE 251400Z 2515/2600 27010KT CAVOK
Issued Sep-25 @ 14:00 UTC
(an hour ago)
Valid From Sep-25 @ 15:00 UTC
(5 minutes ago)
Valid To Sep-26 @ 00:00 UTC
(in 9 hours)
Sep-25 @ 15:00 - Sep-26 @ 00:00
Wind Visibility
270° at 10 knots 10,000+ meters
Clouds
  • No significant clouds
Conditions